Lady Washington — WAA2820 — position and weather

sailwx.info

Track history (hours):
 
Tides and Currents Weather Stations Pressure Air Temp Water Temp Dewpoint Dewpoint Depression Visibility Wind Speed Wind Dir Waves Ship Positions

Lady Washington (United States)

Ship's website: http://www.historicalseaport.org/LadyWashington.htm

Owner: GRAYS HARBOR HISTORICAL SEAPORT AUTHORIT, ABERDEEN, WA. More information available from US FCC via Universal Licensing System and Coast Guard Vessel Documentation Center.

Last reported at 2017-Dec-14 16:09 UTC. Time now 2018-Jan-21 05:09 UTC.
Position N 33°45' W 120°20'.
Warning: this ship's position is 37 days out of date.

Length 37 m.

Type: Sailing vessel. MMSI: 366945360.

Date/timePositionNaut miles runAvg speedWind from/ knotsBaromVisibWave heightAir tempDewpointWater temp
2017-Dec-14 16:09N 33°45' W 120°20'1 3.7
2017-Dec-14 15:58N 33°45' W 120°21'4 3.7
2017-Dec-14 14:57N 33°46' W 120°25'12 4.5
2017-Dec-14 12:13N 33°50' W 120°39'2 5.1
2017-Dec-14 11:55N 33°51' W 120°41'4 5.7
2017-Dec-14 11:17N 33°52' W 120°45'2 6.0
2017-Dec-14 10:53N 33°53' W 120°47'3 5.9
2017-Dec-14 10:19N 33°54' W 120°51'5 6.0
2017-Dec-14 09:30N 33°56' W 120°57'3 6.1
2017-Dec-14 08:58N 33°57' W 121°00'7 5.4
2017-Dec-14 07:44N 34°01' W 121°07'13 6.0
2017-Dec-14 05:32N 34°14' W 121°11'2 6.3
2017-Dec-14 05:10N 34°16' W 121°12'1 6.4
2017-Dec-14 05:00N 34°17' W 121°12'38 5.8
2017-Dec-13 22:28N 34°55' W 121°08'8 4.9
2017-Dec-13 20:56N 35°01' W 121°03'3 3.8
2017-Dec-13 20:10N 35°04' W 121°02'0 2.7
2017-Dec-13 19:59N 35°04' W 121°02'  
Track history (hours):
 
Tides and Currents Weather Stations Pressure Air Temp Water Temp Dewpoint Dewpoint Depression Visibility Wind Speed Wind Dir Waves Ship Positions

Lady Washington (United States)

Ship's website: http://www.historicalseaport.org/LadyWashington.htm

Owner: GRAYS HARBOR HISTORICAL SEAPORT AUTHORIT, ABERDEEN, WA. More information available from US FCC via Universal Licensing System and Coast Guard Vessel Documentation Center.

Last reported at 2017-Dec-14 16:09 UTC. Time now 2018-Jan-21 05:09 UTC.
Position N 33°45' W 120°20'.
Warning: this ship's position is 37 days out of date.

Length 37 m.

Type: Sailing vessel. MMSI: 366945360.

Date/timePositionNaut miles runAvg speedWind from/ knotsBaromVisibWave heightAir tempDewpointWater temp
2017-Dec-14 16:09N 33°45' W 120°20'1 3.7
2017-Dec-14 15:58N 33°45' W 120°21'4 3.7
2017-Dec-14 14:57N 33°46' W 120°25'12 4.5
2017-Dec-14 12:13N 33°50' W 120°39'2 5.1
2017-Dec-14 11:55N 33°51' W 120°41'4 5.7
2017-Dec-14 11:17N 33°52' W 120°45'2 6.0
2017-Dec-14 10:53N 33°53' W 120°47'3 5.9
2017-Dec-14 10:19N 33°54' W 120°51'5 6.0
2017-Dec-14 09:30N 33°56' W 120°57'3 6.1
2017-Dec-14 08:58N 33°57' W 121°00'7 5.4
2017-Dec-14 07:44N 34°01' W 121°07'13 6.0
2017-Dec-14 05:32N 34°14' W 121°11'2 6.3
2017-Dec-14 05:10N 34°16' W 121°12'1 6.4
2017-Dec-14 05:00N 34°17' W 121°12'38 5.8
2017-Dec-13 22:28N 34°55' W 121°08'8 4.9
2017-Dec-13 20:56N 35°01' W 121°03'3 3.8
2017-Dec-13 20:10N 35°04' W 121°02'0 2.7
2017-Dec-13 19:59N 35°04' W 121°02'  

Dump ship's entire track history